createdAt,value
2022-07-26T00:00:34.254Z,1.90
2022-07-26T00:03:19.627Z,2.22
2022-07-26T00:06:05.071Z,2.00
2022-07-26T00:08:50.847Z,1.80
2022-07-26T00:11:36.429Z,1.60
2022-07-26T00:14:22.043Z,1.90
2022-07-26T00:17:07.183Z,2.00
2022-07-26T00:19:52.882Z,2.45
2022-07-26T00:22:39.702Z,2.55
2022-07-26T00:25:25.030Z,1.80
2022-07-26T00:28:10.493Z,1.85
2022-07-26T00:30:57.231Z,2.00
2022-07-26T00:33:42.481Z,1.50
2022-07-26T00:36:28.984Z,1.77
2022-07-26T00:39:14.190Z,1.50
2022-07-26T00:41:59.806Z,1.40
2022-07-26T00:44:46.054Z,1.60
2022-07-26T00:47:31.899Z,1.40
2022-07-26T00:50:19.777Z,1.60
2022-07-26T00:53:05.844Z,1.55
2022-07-26T00:55:52.789Z,1.65
2022-07-26T00:58:38.453Z,1.38
2022-07-26T01:01:23.767Z,1.20
2022-07-26T01:04:09.936Z,1.58
2022-07-26T01:06:55.677Z,1.40
2022-07-26T01:09:41.422Z,1.67
2022-07-26T01:12:27.124Z,1.95
2022-07-26T01:15:14.480Z,1.92
2022-07-26T01:18:00.012Z,2.20
2022-07-26T01:20:46.677Z,1.63
2022-07-26T01:23:33.040Z,1.38
2022-07-26T01:26:18.714Z,1.25
2022-07-26T01:29:05.004Z,1.80
2022-07-26T01:31:51.298Z,1.90
2022-07-26T01:34:36.710Z,2.70
2022-07-26T01:37:22.330Z,2.10
2022-07-26T01:40:08.545Z,1.50
2022-07-26T01:42:54.825Z,1.75
2022-07-26T01:45:40.191Z,2.00
2022-07-26T01:48:25.664Z,1.98
2022-07-26T01:51:11.002Z,1.40
2022-07-26T01:53:56.639Z,1.73
2022-07-26T01:56:43.270Z,1.20
2022-07-26T01:59:28.900Z,1.23
2022-07-26T02:02:14.506Z,1.30
2022-07-26T02:05:00.065Z,1.27
2022-07-26T02:07:45.345Z,1.25
2022-07-26T02:10:49.892Z,1.50
2022-07-26T02:13:39.784Z,1.30
2022-07-26T02:16:25.019Z,1.40
2022-07-26T02:19:10.378Z,1.35
2022-07-26T02:21:56.170Z,1.52
2022-07-26T02:24:41.575Z,1.48
2022-07-26T02:27:27.416Z,1.63
2022-07-26T02:30:13.509Z,1.27
2022-07-26T02:32:58.823Z,1.40
2022-07-26T02:35:44.365Z,1.27
2022-07-26T02:38:29.527Z,1.33
2022-07-26T02:41:15.010Z,1.10
2022-07-26T02:44:00.542Z,1.25
2022-07-26T02:46:45.600Z,1.20
2022-07-26T02:49:31.193Z,1.23
2022-07-26T02:52:16.661Z,1.35
2022-07-26T02:55:02.273Z,1.30
2022-07-26T02:57:48.153Z,1.20
2022-07-26T03:00:33.827Z,1.30
2022-07-26T03:03:19.303Z,1.90
2022-07-26T03:06:04.812Z,1.85
2022-07-26T03:08:50.270Z,1.63
2022-07-26T03:11:35.813Z,1.60
2022-07-26T03:14:21.265Z,1.30
2022-07-26T03:17:06.886Z,1.60
2022-07-26T03:19:52.339Z,1.20
2022-07-26T03:22:37.743Z,1.10
2022-07-26T03:25:23.522Z,1.25
2022-07-26T03:28:09.616Z,1.20
2022-07-26T03:30:55.004Z,1.15
2022-07-26T03:33:41.098Z,1.30
2022-07-26T03:36:26.569Z,1.05
2022-07-26T03:39:12.035Z,1.15
2022-07-26T03:41:57.402Z,2.42
2022-07-26T03:44:43.301Z,2.53
2022-07-26T03:47:28.369Z,2.35
2022-07-26T03:50:14.032Z,2.20
2022-07-26T03:52:59.186Z,1.83
2022-07-26T03:56:03.188Z,2.80
2022-07-26T03:58:48.342Z,2.30
2022-07-26T04:01:35.247Z,2.40
2022-07-26T04:04:25.193Z,2.55
2022-07-26T04:07:11.545Z,1.88
2022-07-26T04:09:57.852Z,1.73
2022-07-26T04:12:43.418Z,2.03
2022-07-26T04:15:28.586Z,2.00
2022-07-26T04:18:14.495Z,1.85
2022-07-26T04:20:59.653Z,1.73
2022-07-26T04:23:49.273Z,1.60
2022-07-26T04:26:36.733Z,1.65
2022-07-26T04:29:22.411Z,1.55
2022-07-26T04:32:07.518Z,1.98
2022-07-26T04:34:52.948Z,1.45
2022-07-26T04:37:42.761Z,1.17
2022-07-26T04:40:33.378Z,1.25
2022-07-26T04:43:19.740Z,1.20
2022-07-26T04:46:05.567Z,0.98
2022-07-26T04:48:50.894Z,1.00
2022-07-26T04:51:36.342Z,0.73
2022-07-26T04:54:22.856Z,0.93
2022-07-26T04:57:08.894Z,0.90
2022-07-26T05:00:16.853Z,1.08
2022-07-26T05:03:01.849Z,1.10
2022-07-26T05:05:47.085Z,1.42
2022-07-26T05:08:32.758Z,1.30
2022-07-26T05:11:18.212Z,1.17
2022-07-26T05:14:04.683Z,1.35
2022-07-26T05:16:50.138Z,1.20
2022-07-26T05:19:36.037Z,1.00
2022-07-26T05:22:21.434Z,1.00
2022-07-26T05:25:07.860Z,0.90
2022-07-26T05:27:53.607Z,0.88
2022-07-26T05:30:39.578Z,0.73
2022-07-26T05:33:24.842Z,1.10
2022-07-26T05:36:10.699Z,0.80
2022-07-26T05:38:55.841Z,1.00
2022-07-26T05:41:41.674Z,0.80
2022-07-26T05:44:26.792Z,0.98
2022-07-26T05:47:16.160Z,0.80
2022-07-26T05:50:01.620Z,1.00
2022-07-26T05:52:46.918Z,0.98
2022-07-26T05:55:32.533Z,0.95
2022-07-26T05:58:18.515Z,0.77
2022-07-26T06:01:03.901Z,0.98
2022-07-26T06:03:49.838Z,0.90
2022-07-26T06:06:35.429Z,1.10
2022-07-26T06:09:21.153Z,1.15
2022-07-26T06:12:06.648Z,1.05
2022-07-26T06:14:52.108Z,1.02
2022-07-26T06:17:41.928Z,1.17
2022-07-26T06:20:27.602Z,1.08
2022-07-26T06:23:13.477Z,1.00
2022-07-26T06:25:59.172Z,0.93
2022-07-26T06:28:44.562Z,0.90
2022-07-26T06:31:30.066Z,1.02
2022-07-26T06:34:16.017Z,0.80
2022-07-26T06:37:01.789Z,0.70
2022-07-26T06:39:47.077Z,0.80
2022-07-26T06:42:33.233Z,0.75
2022-07-26T06:45:18.640Z,0.77
2022-07-26T06:48:04.338Z,0.80
2022-07-26T06:50:49.765Z,0.70
2022-07-26T06:53:35.455Z,0.60
2022-07-26T06:56:20.825Z,1.10
2022-07-26T06:59:10.198Z,0.90
2022-07-26T07:01:59.044Z,0.65
2022-07-26T07:04:45.585Z,0.60
2022-07-26T07:07:30.897Z,0.90
2022-07-26T07:10:19.266Z,0.73
2022-07-26T07:13:08.173Z,0.77
2022-07-26T07:15:54.133Z,0.70
2022-07-26T07:18:39.842Z,0.95
2022-07-26T07:21:25.668Z,0.75
2022-07-26T07:24:11.519Z,0.80
2022-07-26T07:26:57.582Z,0.73
2022-07-26T07:29:43.274Z,0.60
2022-07-26T07:32:28.788Z,0.80
2022-07-26T07:35:14.132Z,1.02
2022-07-26T07:37:59.727Z,0.60
2022-07-26T07:40:45.175Z,0.73
2022-07-26T07:43:30.875Z,0.88
2022-07-26T07:46:16.181Z,0.80
2022-07-26T07:49:02.179Z,0.80
2022-07-26T07:51:47.892Z,1.00
2022-07-26T07:54:33.937Z,0.80
2022-07-26T07:57:20.220Z,0.98
2022-07-26T08:00:07.135Z,1.00
2022-07-26T08:02:56.843Z,0.88
2022-07-26T08:05:42.527Z,0.80
2022-07-26T08:08:27.907Z,0.93
2022-07-26T08:11:13.449Z,1.67
2022-07-26T08:13:58.780Z,0.90
2022-07-26T08:16:45.074Z,0.77
2022-07-26T08:19:41.522Z,0.80
2022-07-26T08:22:28.257Z,0.80
2022-07-26T08:25:13.384Z,0.60
2022-07-26T08:28:06.036Z,0.80
2022-07-26T08:30:51.231Z,0.60
2022-07-26T08:33:36.837Z,0.68
2022-07-26T08:36:32.245Z,0.70
2022-07-26T08:39:18.514Z,0.70
2022-07-26T08:42:04.260Z,0.60
2022-07-26T08:44:50.249Z,0.73
2022-07-26T08:47:46.239Z,0.65
2022-07-26T08:50:41.443Z,0.73
2022-07-26T08:53:29.414Z,0.50
2022-07-26T08:56:15.394Z,0.60
2022-07-26T08:59:03.991Z,0.90
2022-07-26T09:02:05.127Z,0.57
2022-07-26T09:04:50.872Z,0.60
2022-07-26T09:07:40.034Z,0.70
2022-07-26T09:10:25.448Z,0.70
2022-07-26T09:13:11.844Z,0.88
2022-07-26T09:16:11.758Z,0.90
2022-07-26T09:19:17.858Z,1.10
2022-07-26T09:22:12.115Z,0.90
2022-07-26T09:24:57.773Z,0.93
2022-07-26T09:27:43.010Z,0.70
2022-07-26T09:30:30.963Z,0.70
2022-07-26T09:33:16.115Z,1.23
2022-07-26T09:36:04.493Z,0.70
2022-07-26T09:38:52.802Z,1.00
2022-07-26T09:41:38.639Z,0.65
2022-07-26T09:44:26.052Z,0.70
2022-07-26T09:47:11.607Z,0.75
2022-07-26T09:50:24.756Z,0.65
2022-07-26T09:53:12.618Z,0.60
2022-07-26T09:55:58.105Z,0.50
2022-07-26T09:58:44.654Z,0.52
2022-07-26T10:01:30.163Z,0.70
2022-07-26T10:04:16.295Z,0.90
2022-07-26T10:07:02.868Z,1.05
2022-07-26T10:10:02.764Z,0.93
2022-07-26T10:12:52.035Z,1.05
2022-07-26T10:15:46.786Z,0.75
2022-07-26T10:18:40.553Z,0.77
2022-07-26T10:21:29.783Z,0.80
2022-07-26T10:24:26.728Z,0.60
2022-07-26T10:27:42.040Z,0.70
2022-07-26T10:30:35.353Z,0.68
2022-07-26T10:33:24.850Z,0.80
2022-07-26T10:36:32.616Z,0.80
2022-07-26T10:39:24.065Z,0.85
2022-07-26T10:42:11.012Z,0.70
2022-07-26T10:45:17.139Z,1.17
2022-07-26T10:48:35.001Z,1.00
2022-07-26T10:51:29.526Z,0.82
2022-07-26T10:54:16.798Z,0.90
2022-07-26T10:57:02.654Z,1.30
2022-07-26T10:59:55.831Z,1.20
2022-07-26T11:02:43.864Z,1.20
2022-07-26T11:05:31.973Z,1.10
2022-07-26T11:08:17.504Z,1.40
2022-07-26T11:11:03.259Z,1.20
2022-07-26T11:13:48.835Z,1.30
2022-07-26T11:16:42.670Z,1.13
2022-07-26T11:19:29.338Z,1.20
2022-07-26T11:22:14.556Z,1.38
2022-07-26T11:25:00.063Z,1.10
2022-07-26T11:28:03.375Z,1.20
2022-07-26T11:30:59.905Z,1.40
2022-07-26T11:33:50.869Z,1.55
2022-07-26T11:36:43.934Z,1.60
2022-07-26T11:39:31.930Z,1.50
2022-07-26T11:42:21.572Z,1.67
2022-07-26T11:45:10.158Z,1.20
2022-07-26T11:47:58.831Z,1.20
2022-07-26T11:50:46.955Z,1.27
2022-07-26T11:53:37.343Z,1.55
2022-07-26T11:56:23.686Z,1.58
2022-07-26T11:59:13.953Z,1.20
2022-07-26T12:02:00.705Z,1.45
2022-07-26T12:04:46.161Z,1.23
2022-07-26T12:07:31.930Z,1.10
2022-07-26T12:10:17.733Z,0.90
2022-07-26T12:13:11.207Z,0.88
2022-07-26T12:15:56.349Z,0.93
2022-07-26T12:18:51.274Z,1.15
2022-07-26T12:21:49.860Z,1.00
2022-07-26T12:24:57.234Z,1.05
2022-07-26T12:27:47.258Z,0.75
2022-07-26T12:30:36.134Z,0.80
2022-07-26T12:33:21.841Z,1.00
2022-07-26T12:36:28.194Z,1.02
2022-07-26T12:39:21.771Z,0.95
2022-07-26T12:42:33.354Z,0.80
2022-07-26T12:45:22.367Z,1.00
2022-07-26T12:48:10.913Z,0.90
2022-07-26T12:50:57.942Z,1.10
2022-07-26T12:53:43.426Z,1.00
2022-07-26T12:56:29.318Z,0.95
2022-07-26T12:59:17.872Z,0.95
2022-07-26T13:02:04.735Z,0.80
2022-07-26T13:04:50.594Z,0.90
2022-07-26T13:07:36.815Z,1.23
2022-07-26T13:10:33.643Z,0.80
2022-07-26T13:13:20.235Z,0.80
2022-07-26T13:16:11.551Z,0.63
2022-07-26T13:21:45.807Z,1.30
2022-07-26T13:24:36.383Z,1.00
2022-07-26T13:27:24.086Z,0.75
2022-07-26T13:30:09.895Z,0.90
2022-07-26T13:32:55.152Z,0.80
2022-07-26T13:35:42.671Z,0.98
2022-07-26T13:38:28.888Z,1.00
2022-07-26T13:41:14.127Z,1.02
2022-07-26T13:43:59.836Z,0.98
2022-07-26T13:46:45.372Z,1.05
2022-07-26T13:49:31.153Z,0.90
2022-07-26T13:52:17.187Z,1.10
2022-07-26T13:55:02.501Z,1.02
2022-07-26T13:57:55.739Z,1.25
2022-07-26T14:00:42.503Z,0.90
2022-07-26T14:03:30.930Z,0.98
2022-07-26T14:06:20.540Z,0.80
2022-07-26T14:09:10.585Z,1.20
2022-07-26T14:11:56.301Z,0.88
2022-07-26T14:14:42.159Z,0.80
2022-07-26T14:17:27.853Z,1.10
2022-07-26T14:20:14.718Z,0.85
2022-07-26T14:23:00.372Z,1.00
2022-07-26T14:25:45.828Z,0.82
2022-07-26T14:28:31.765Z,1.00
2022-07-26T14:31:17.632Z,0.82
2022-07-26T14:34:03.080Z,0.93
2022-07-26T14:36:48.901Z,1.10
2022-07-26T14:39:34.441Z,0.80
2022-07-26T14:42:19.877Z,0.95
2022-07-26T14:45:06.068Z,0.80
2022-07-26T14:47:51.805Z,0.80
2022-07-26T14:50:59.610Z,0.90
2022-07-26T14:53:43.124Z,0.80
2022-07-26T14:56:28.587Z,0.80
2022-07-26T14:59:14.385Z,0.90
2022-07-26T15:02:03.924Z,1.00
2022-07-26T15:04:51.283Z,0.98
2022-07-26T15:07:37.248Z,0.90
2022-07-26T15:10:29.404Z,0.95
2022-07-26T15:13:15.165Z,1.25
2022-07-26T15:16:00.466Z,1.05
2022-07-26T15:18:45.972Z,1.00
2022-07-26T15:21:31.780Z,0.93
2022-07-26T15:24:17.222Z,1.20
2022-07-26T15:27:02.843Z,1.00
2022-07-26T15:29:49.900Z,1.00
2022-07-26T15:32:36.179Z,1.38
2022-07-26T15:35:21.829Z,1.08
2022-07-26T15:38:07.978Z,1.10
2022-07-26T15:40:53.629Z,1.25
2022-07-26T15:43:46.757Z,1.00
2022-07-26T15:46:35.362Z,1.05
2022-07-26T15:49:21.532Z,1.10
2022-07-26T15:52:06.967Z,0.88
2022-07-26T15:54:52.914Z,1.48
2022-07-26T15:57:38.850Z,1.20
2022-07-26T16:00:24.549Z,1.10
2022-07-26T16:03:11.473Z,1.10
2022-07-26T16:05:56.958Z,1.00
2022-07-26T16:09:05.775Z,1.05
2022-07-26T16:11:49.920Z,0.90
2022-07-26T16:14:35.265Z,0.80
2022-07-26T16:17:21.175Z,0.90
2022-07-26T16:20:07.006Z,1.13
2022-07-26T16:22:52.521Z,1.10
2022-07-26T16:25:38.173Z,0.95
2022-07-26T16:28:23.628Z,1.05
2022-07-26T16:31:09.205Z,1.00
2022-07-26T16:33:54.582Z,0.95
2022-07-26T16:36:40.318Z,0.85
2022-07-26T16:39:25.584Z,0.80
2022-07-26T16:42:10.908Z,0.90
2022-07-26T16:44:56.396Z,1.00
2022-07-26T16:47:41.932Z,1.00
2022-07-26T16:50:27.939Z,0.90
2022-07-26T16:53:13.573Z,0.90
2022-07-26T16:55:59.264Z,1.17
2022-07-26T16:58:45.354Z,0.80
2022-07-26T17:01:30.684Z,0.85
2022-07-26T17:04:16.642Z,0.93
2022-07-26T17:07:23.905Z,0.90
2022-07-26T17:10:09.735Z,0.90
2022-07-26T17:12:55.398Z,0.70
2022-07-26T17:15:40.818Z,0.70
2022-07-26T17:18:26.454Z,0.77
2022-07-26T17:21:11.488Z,0.60
2022-07-26T17:23:57.202Z,1.00
2022-07-26T17:26:42.661Z,0.70
2022-07-26T17:29:28.265Z,0.70
2022-07-26T17:32:13.680Z,0.80
2022-07-26T17:34:59.499Z,0.70
2022-07-26T17:37:45.116Z,0.80
2022-07-26T17:40:33.871Z,0.70
2022-07-26T17:43:19.070Z,1.00
2022-07-26T17:46:04.662Z,0.80
2022-07-26T17:48:50.120Z,0.70
2022-07-26T17:51:35.732Z,0.98
2022-07-26T17:54:21.127Z,0.88
2022-07-26T17:57:07.050Z,0.90
2022-07-26T17:59:52.521Z,0.98
2022-07-26T18:02:38.097Z,0.85
2022-07-26T18:05:27.263Z,0.65
2022-07-26T18:08:17.901Z,0.80
2022-07-26T18:11:04.754Z,0.93
2022-07-26T18:13:50.580Z,0.63
2022-07-26T18:16:36.966Z,0.60
2022-07-26T18:19:23.581Z,0.60
2022-07-26T18:22:08.865Z,0.60
2022-07-26T18:24:54.764Z,1.10
2022-07-26T18:27:40.959Z,0.60
2022-07-26T18:30:29.793Z,0.70
2022-07-26T18:33:15.635Z,0.75
2022-07-26T18:36:01.551Z,0.60
2022-07-26T18:38:47.098Z,0.73
2022-07-26T18:41:34.263Z,0.57
2022-07-26T18:44:20.341Z,0.60
2022-07-26T18:47:07.152Z,0.55
2022-07-26T18:49:52.470Z,0.63
2022-07-26T18:52:39.823Z,0.55
2022-07-26T18:55:25.505Z,0.90
2022-07-26T18:58:11.076Z,0.70
2022-07-26T19:00:56.940Z,0.77
2022-07-26T19:03:43.031Z,0.70
2022-07-26T19:06:28.516Z,0.70
2022-07-26T19:09:14.416Z,0.70
2022-07-26T19:12:00.118Z,0.60
2022-07-26T19:14:46.136Z,0.60
2022-07-26T19:17:31.711Z,0.65
2022-07-26T19:20:18.687Z,0.60
2022-07-26T19:23:04.690Z,0.60
2022-07-26T19:25:50.134Z,0.80
2022-07-26T19:28:35.114Z,0.50
2022-07-26T19:31:21.121Z,0.70
2022-07-26T19:34:06.399Z,0.70
2022-07-26T19:36:52.856Z,0.70
2022-07-26T19:39:38.506Z,0.80
2022-07-26T19:42:23.969Z,0.60
2022-07-26T19:45:10.111Z,0.60
2022-07-26T19:47:55.885Z,0.60
2022-07-26T19:50:41.413Z,0.52
2022-07-26T19:53:27.103Z,0.80
2022-07-26T19:56:12.406Z,0.90
2022-07-26T19:59:00.195Z,0.60
2022-07-26T20:01:47.455Z,0.77
2022-07-26T20:04:32.969Z,0.75
2022-07-26T20:07:19.774Z,0.80
2022-07-26T20:10:06.190Z,0.80
2022-07-26T20:12:51.648Z,0.98
2022-07-26T20:15:37.413Z,0.93
2022-07-26T20:18:24.783Z,0.98
2022-07-26T20:21:10.357Z,0.80
2022-07-26T20:23:55.715Z,0.80
2022-07-26T20:26:42.905Z,0.80
2022-07-26T20:29:28.049Z,1.15
2022-07-26T20:32:13.973Z,0.65
2022-07-26T20:34:59.126Z,0.60
2022-07-26T20:37:44.706Z,0.68
2022-07-26T20:40:29.996Z,0.70
2022-07-26T20:43:15.998Z,0.88
2022-07-26T20:46:01.941Z,0.68
2022-07-26T20:48:47.703Z,0.65
2022-07-26T20:51:33.429Z,0.60
2022-07-26T20:54:19.082Z,0.75
2022-07-26T20:57:04.679Z,1.02
2022-07-26T20:59:50.157Z,0.70
2022-07-26T21:02:35.450Z,0.85
2022-07-26T21:05:21.127Z,0.65
2022-07-26T21:08:06.190Z,0.75
2022-07-26T21:10:51.757Z,0.60
2022-07-26T21:13:37.734Z,0.68
2022-07-26T21:16:23.522Z,0.60
2022-07-26T21:19:09.497Z,0.63
2022-07-26T21:21:57.083Z,0.68
2022-07-26T21:24:42.496Z,0.60
2022-07-26T21:27:28.098Z,0.73
2022-07-26T21:30:13.539Z,0.68
2022-07-26T21:32:59.052Z,0.60
2022-07-26T21:35:44.630Z,0.63
2022-07-26T21:38:31.959Z,0.80
2022-07-26T21:41:17.613Z,0.57
2022-07-26T21:44:04.312Z,0.68
2022-07-26T21:46:50.483Z,0.60
2022-07-26T21:49:35.894Z,0.50
2022-07-26T21:52:21.212Z,0.70
2022-07-26T21:55:07.181Z,0.50
2022-07-26T21:57:52.794Z,0.77
2022-07-26T22:00:39.216Z,0.50
2022-07-26T22:03:24.701Z,0.75
2022-07-26T22:06:10.729Z,0.65
2022-07-26T22:08:56.158Z,0.50
2022-07-26T22:11:41.784Z,0.70
2022-07-26T22:14:27.176Z,0.70
2022-07-26T22:17:12.801Z,0.43
2022-07-26T22:19:58.060Z,0.52
2022-07-26T22:22:43.503Z,0.57
2022-07-26T22:25:30.169Z,0.43
2022-07-26T22:28:17.903Z,0.60
2022-07-26T22:31:03.940Z,0.65
2022-07-26T22:33:49.446Z,0.80
2022-07-26T22:36:34.796Z,0.60
2022-07-26T22:39:20.390Z,0.80
2022-07-26T22:42:15.348Z,0.95
2022-07-26T22:45:01.678Z,0.95
2022-07-26T22:47:55.900Z,0.70
2022-07-26T22:50:41.670Z,0.45
2022-07-26T22:53:27.161Z,0.50
2022-07-26T22:56:12.756Z,0.60
2022-07-26T22:59:04.858Z,0.50
2022-07-26T23:01:50.379Z,0.50
2022-07-26T23:04:35.939Z,0.50
2022-07-26T23:07:21.472Z,0.75
2022-07-26T23:10:08.641Z,0.57
2022-07-26T23:12:55.429Z,0.50
2022-07-26T23:15:40.669Z,0.77
2022-07-26T23:18:26.318Z,0.80
2022-07-26T23:21:11.712Z,0.70
2022-07-26T23:23:57.309Z,0.60
2022-07-26T23:26:42.673Z,0.60
2022-07-26T23:29:28.468Z,0.57
2022-07-26T23:32:14.037Z,0.63
2022-07-26T23:34:59.800Z,0.60
2022-07-26T23:37:45.174Z,0.65
2022-07-26T23:40:30.805Z,0.70
2022-07-26T23:43:15.985Z,0.90
2022-07-26T23:46:01.599Z,0.70
2022-07-26T23:48:47.262Z,0.80
2022-07-26T23:51:33.390Z,0.70
2022-07-26T23:54:18.586Z,0.70
2022-07-26T23:57:04.111Z,0.73
2022-07-26T23:59:49.741Z,1.15
